sensor_id;sensor_type;location;lat;lon;timestamp;temperature;humidity
23053;DHT22;11694;-36.632;-64.318;2022-11-28T00:03:56;28.50;1.00
23053;DHT22;11694;-36.632;-64.318;2022-11-28T00:06:24;28.50;1.00
23053;DHT22;11694;-36.632;-64.318;2022-11-28T00:08:52;28.50;1.00
23053;DHT22;11694;-36.632;-64.318;2022-11-28T00:11:23;28.50;1.00
23053;DHT22;11694;-36.632;-64.318;2022-11-28T00:13:52;28.50;1.00
23053;DHT22;11694;-36.632;-64.318;2022-11-28T00:16:21;28.60;1.00
23053;DHT22;11694;-36.632;-64.318;2022-11-28T00:18:53;28.70;99.90
23053;DHT22;11694;-36.632;-64.318;2022-11-28T00:21:21;28.80;99.90
23053;DHT22;11694;-36.632;-64.318;2022-11-28T00:23:48;28.90;99.90
23053;DHT22;11694;-36.632;-64.318;2022-11-28T00:26:26;28.90;99.90
23053;DHT22;11694;-36.632;-64.318;2022-11-28T00:28:55;29.00;99.90
23053;DHT22;11694;-36.632;-64.318;2022-11-28T00:31:25;29.00;99.90
23053;DHT22;11694;-36.632;-64.318;2022-11-28T00:33:54;28.90;1.00
23053;DHT22;11694;-36.632;-64.318;2022-11-28T00:36:22;28.70;1.00
23053;DHT22;11694;-36.632;-64.318;2022-11-28T00:38:50;28.40;1.00
23053;DHT22;11694;-36.632;-64.318;2022-11-28T00:41:24;27.80;4.60
23053;DHT22;11694;-36.632;-64.318;2022-11-28T00:43:52;27.40;25.20
23053;DHT22;11694;-36.632;-64.318;2022-11-28T00:46:20;27.20;33.30
23053;DHT22;11694;-36.632;-64.318;2022-11-28T00:48:48;27.10;35.80
23053;DHT22;11694;-36.632;-64.318;2022-11-28T00:51:19;26.90;35.20
23053;DHT22;11694;-36.632;-64.318;2022-11-28T00:53:48;26.90;36.80
23053;DHT22;11694;-36.632;-64.318;2022-11-28T00:56:19;26.90;37.20
23053;DHT22;11694;-36.632;-64.318;2022-11-28T00:58:47;26.80;26.40
23053;DHT22;11694;-36.632;-64.318;2022-11-28T01:01:24;26.80;26.80
23053;DHT22;11694;-36.632;-64.318;2022-11-28T01:03:53;26.80;26.00
23053;DHT22;11694;-36.632;-64.318;2022-11-28T01:06:42;26.80;8.30
23053;DHT22;11694;-36.632;-64.318;2022-11-28T01:09:14;27.00;6.10
23053;DHT22;11694;-36.632;-64.318;2022-11-28T01:11:43;27.00;1.00
23053;DHT22;11694;-36.632;-64.318;2022-11-28T01:14:11;27.00;4.80
23053;DHT22;11694;-36.632;-64.318;2022-11-28T01:16:39;26.90;6.50
23053;DHT22;11694;-36.632;-64.318;2022-11-28T01:19:06;26.80;7.40
23053;DHT22;11694;-36.632;-64.318;2022-11-28T01:21:34;26.90;4.90
23053;DHT22;11694;-36.632;-64.318;2022-11-28T01:24:02;26.90;2.90
23053;DHT22;11694;-36.632;-64.318;2022-11-28T01:26:30;27.10;1.00
23053;DHT22;11694;-36.632;-64.318;2022-11-28T01:28:59;27.30;1.00
23053;DHT22;11694;-36.632;-64.318;2022-11-28T01:31:28;27.40;1.00
23053;DHT22;11694;-36.632;-64.318;2022-11-28T01:33:55;27.40;1.00
23053;DHT22;11694;-36.632;-64.318;2022-11-28T01:36:23;27.40;1.00
23053;DHT22;11694;-36.632;-64.318;2022-11-28T01:38:50;27.40;1.00
23053;DHT22;11694;-36.632;-64.318;2022-11-28T01:41:21;27.40;1.00
23053;DHT22;11694;-36.632;-64.318;2022-11-28T01:46:53;27.40;1.00
23053;DHT22;11694;-36.632;-64.318;2022-11-28T01:49:34;27.40;1.00
23053;DHT22;11694;-36.632;-64.318;2022-11-28T01:52:04;27.40;1.00
23053;DHT22;11694;-36.632;-64.318;2022-11-28T01:54:33;27.30;1.00
23053;DHT22;11694;-36.632;-64.318;2022-11-28T01:57:16;27.20;1.00
23053;DHT22;11694;-36.632;-64.318;2022-11-28T02:02:57;27.20;1.00
23053;DHT22;11694;-36.632;-64.318;2022-11-28T02:05:30;27.20;1.00
23053;DHT22;11694;-36.632;-64.318;2022-11-28T02:07:59;27.10;1.20
23053;DHT22;11694;-36.632;-64.318;2022-11-28T02:10:31;27.00;5.50
23053;DHT22;11694;-36.632;-64.318;2022-11-28T02:24:51;26.40;24.30
23053;DHT22;11694;-36.632;-64.318;2022-11-28T02:44:21;26.20;28.30
23053;DHT22;11694;-36.632;-64.318;2022-11-28T02:47:06;26.10;27.70
23053;DHT22;11694;-36.632;-64.318;2022-11-28T02:49:52;26.10;27.50
23053;DHT22;11694;-36.632;-64.318;2022-11-28T02:52:28;26.10;27.40
23053;DHT22;11694;-36.632;-64.318;2022-11-28T02:54:58;26.10;30.00
23053;DHT22;11694;-36.632;-64.318;2022-11-28T02:57:40;26.00;32.80
23053;DHT22;11694;-36.632;-64.318;2022-11-28T03:06:07;25.90;30.90
23053;DHT22;11694;-36.632;-64.318;2022-11-28T03:08:58;25.90;35.00
23053;DHT22;11694;-36.632;-64.318;2022-11-28T03:14:13;25.80;37.20
23053;DHT22;11694;-36.632;-64.318;2022-11-28T03:16:53;25.70;39.90
23053;DHT22;11694;-36.632;-64.318;2022-11-28T03:19:31;25.60;46.10
23053;DHT22;11694;-36.632;-64.318;2022-11-28T03:22:11;25.50;47.70
23053;DHT22;11694;-36.632;-64.318;2022-11-28T03:25:07;25.40;50.90
23053;DHT22;11694;-36.632;-64.318;2022-11-28T03:27:47;25.30;55.00
23053;DHT22;11694;-36.632;-64.318;2022-11-28T03:33:26;25.20;56.00
23053;DHT22;11694;-36.632;-64.318;2022-11-28T03:36:20;25.20;56.00
23053;DHT22;11694;-36.632;-64.318;2022-11-28T03:38:49;25.20;57.20
23053;DHT22;11694;-36.632;-64.318;2022-11-28T03:41:24;25.20;55.60
23053;DHT22;11694;-36.632;-64.318;2022-11-28T03:43:56;25.10;62.60
23053;DHT22;11694;-36.632;-64.318;2022-11-28T03:46:34;25.00;62.90
23053;DHT22;11694;-36.632;-64.318;2022-11-28T03:49:03;24.90;63.30
23053;DHT22;11694;-36.632;-64.318;2022-11-28T03:54:51;25.00;61.70
23053;DHT22;11694;-36.632;-64.318;2022-11-28T03:57:32;24.90;62.00
23053;DHT22;11694;-36.632;-64.318;2022-11-28T04:00:03;24.80;64.00
23053;DHT22;11694;-36.632;-64.318;2022-11-28T04:05:04;24.80;64.90
23053;DHT22;11694;-36.632;-64.318;2022-11-28T04:13:32;24.80;58.60
23053;DHT22;11694;-36.632;-64.318;2022-11-28T04:16:33;24.80;56.80
23053;DHT22;11694;-36.632;-64.318;2022-11-28T04:22:17;24.80;51.60
23053;DHT22;11694;-36.632;-64.318;2022-11-28T04:24:59;24.90;48.60
23053;DHT22;11694;-36.632;-64.318;2022-11-28T04:27:32;24.90;48.70
23053;DHT22;11694;-36.632;-64.318;2022-11-28T04:30:01;24.90;47.00
23053;DHT22;11694;-36.632;-64.318;2022-11-28T04:32:31;24.80;45.50
23053;DHT22;11694;-36.632;-64.318;2022-11-28T04:35:14;24.80;48.20
23053;DHT22;11694;-36.632;-64.318;2022-11-28T04:37:44;24.80;47.30
23053;DHT22;11694;-36.632;-64.318;2022-11-28T04:40:15;24.80;42.10
23053;DHT22;11694;-36.632;-64.318;2022-11-28T04:43:01;24.80;40.60
23053;DHT22;11694;-36.632;-64.318;2022-11-28T04:45:35;24.90;42.00
23053;DHT22;11694;-36.632;-64.318;2022-11-28T04:48:04;24.80;42.40
23053;DHT22;11694;-36.632;-64.318;2022-11-28T04:53:59;24.70;43.80
23053;DHT22;11694;-36.632;-64.318;2022-11-28T04:56:45;24.70;45.10
23053;DHT22;11694;-36.632;-64.318;2022-11-28T04:59:14;24.70;42.20
23053;DHT22;11694;-36.632;-64.318;2022-11-28T05:01:43;24.70;43.90
23053;DHT22;11694;-36.632;-64.318;2022-11-28T05:04:13;24.60;40.60
23053;DHT22;11694;-36.632;-64.318;2022-11-28T05:06:43;24.70;38.90
23053;DHT22;11694;-36.632;-64.318;2022-11-28T05:09:13;24.60;39.60
23053;DHT22;11694;-36.632;-64.318;2022-11-28T05:11:40;24.60;43.10
23053;DHT22;11694;-36.632;-64.318;2022-11-28T05:14:07;24.50;42.60
23053;DHT22;11694;-36.632;-64.318;2022-11-28T05:16:34;24.50;43.10
23053;DHT22;11694;-36.632;-64.318;2022-11-28T05:19:02;24.40;42.30
23053;DHT22;11694;-36.632;-64.318;2022-11-28T05:21:29;24.40;42.20
23053;DHT22;11694;-36.632;-64.318;2022-11-28T05:23:56;24.40;40.20
23053;DHT22;11694;-36.632;-64.318;2022-11-28T05:26:23;24.40;45.80
23053;DHT22;11694;-36.632;-64.318;2022-11-28T05:28:52;24.40;40.80
23053;DHT22;11694;-36.632;-64.318;2022-11-28T05:31:20;24.40;40.60
23053;DHT22;11694;-36.632;-64.318;2022-11-28T05:33:47;24.40;33.80
23053;DHT22;11694;-36.632;-64.318;2022-11-28T05:36:15;24.50;33.80
23053;DHT22;11694;-36.632;-64.318;2022-11-28T05:38:43;24.40;30.80
23053;DHT22;11694;-36.632;-64.318;2022-11-28T05:41:18;24.40;30.40
23053;DHT22;11694;-36.632;-64.318;2022-11-28T05:43:46;24.40;33.60
23053;DHT22;11694;-36.632;-64.318;2022-11-28T05:46:13;24.30;35.50
23053;DHT22;11694;-36.632;-64.318;2022-11-28T05:48:40;24.20;43.50
23053;DHT22;11694;-36.632;-64.318;2022-11-28T05:51:07;24.20;40.80
23053;DHT22;11694;-36.632;-64.318;2022-11-28T05:53:35;24.20;42.00
23053;DHT22;11694;-36.632;-64.318;2022-11-28T05:56:20;24.10;44.90
23053;DHT22;11694;-36.632;-64.318;2022-11-28T05:58:52;24.00;48.50
23053;DHT22;11694;-36.632;-64.318;2022-11-28T06:01:25;24.00;50.90
23053;DHT22;11694;-36.632;-64.318;2022-11-28T06:03:52;23.90;51.10
23053;DHT22;11694;-36.632;-64.318;2022-11-28T06:06:26;23.90;55.70
23053;DHT22;11694;-36.632;-64.318;2022-11-28T06:08:54;23.80;54.50
23053;DHT22;11694;-36.632;-64.318;2022-11-28T06:11:23;23.80;57.10
23053;DHT22;11694;-36.632;-64.318;2022-11-28T06:13:51;23.80;63.80
23053;DHT22;11694;-36.632;-64.318;2022-11-28T06:16:28;23.80;71.90
23053;DHT22;11694;-36.632;-64.318;2022-11-28T06:18:58;23.70;77.10
23053;DHT22;11694;-36.632;-64.318;2022-11-28T06:21:26;23.70;74.70
23053;DHT22;11694;-36.632;-64.318;2022-11-28T06:23:54;23.70;75.00
23053;DHT22;11694;-36.632;-64.318;2022-11-28T06:26:23;23.60;73.40
23053;DHT22;11694;-36.632;-64.318;2022-11-28T06:28:51;23.70;70.90
23053;DHT22;11694;-36.632;-64.318;2022-11-28T06:31:20;23.70;67.20
23053;DHT22;11694;-36.632;-64.318;2022-11-28T06:33:48;23.70;64.70
23053;DHT22;11694;-36.632;-64.318;2022-11-28T06:36:17;23.70;65.80
23053;DHT22;11694;-36.632;-64.318;2022-11-28T06:38:45;23.70;67.60
23053;DHT22;11694;-36.632;-64.318;2022-11-28T06:41:15;23.70;68.20
23053;DHT22;11694;-36.632;-64.318;2022-11-28T06:43:43;23.60;71.90
23053;DHT22;11694;-36.632;-64.318;2022-11-28T06:46:21;23.50;80.30
23053;DHT22;11694;-36.632;-64.318;2022-11-28T06:48:50;23.50;81.70
23053;DHT22;11694;-36.632;-64.318;2022-11-28T06:51:19;23.40;78.80
23053;DHT22;11694;-36.632;-64.318;2022-11-28T06:53:46;23.40;78.40
23053;DHT22;11694;-36.632;-64.318;2022-11-28T06:56:16;23.40;82.60
23053;DHT22;11694;-36.632;-64.318;2022-11-28T06:58:44;23.30;90.40
23053;DHT22;11694;-36.632;-64.318;2022-11-28T07:01:18;23.20;91.30
23053;DHT22;11694;-36.632;-64.318;2022-11-28T07:03:46;23.20;91.30
23053;DHT22;11694;-36.632;-64.318;2022-11-28T07:06:15;23.20;92.40
23053;DHT22;11694;-36.632;-64.318;2022-11-28T07:08:43;23.20;93.90
23053;DHT22;11694;-36.632;-64.318;2022-11-28T07:11:30;23.10;95.70
23053;DHT22;11694;-36.632;-64.318;2022-11-28T07:13:59;22.90;99.90
23053;DHT22;11694;-36.632;-64.318;2022-11-28T07:16:29;22.90;99.90
23053;DHT22;11694;-36.632;-64.318;2022-11-28T07:18:58;22.90;99.90
23053;DHT22;11694;-36.632;-64.318;2022-11-28T07:21:25;22.90;99.90
23053;DHT22;11694;-36.632;-64.318;2022-11-28T07:23:53;22.90;99.90
23053;DHT22;11694;-36.632;-64.318;2022-11-28T07:26:21;22.80;99.90
23053;DHT22;11694;-36.632;-64.318;2022-11-28T07:28:49;22.80;99.90
23053;DHT22;11694;-36.632;-64.318;2022-11-28T07:31:20;22.70;99.90
23053;DHT22;11694;-36.632;-64.318;2022-11-28T07:33:48;22.60;99.90
23053;DHT22;11694;-36.632;-64.318;2022-11-28T07:36:24;22.60;99.90
23053;DHT22;11694;-36.632;-64.318;2022-11-28T07:38:54;22.50;99.90
23053;DHT22;11694;-36.632;-64.318;2022-11-28T07:41:23;22.40;99.90
23053;DHT22;11694;-36.632;-64.318;2022-11-28T07:43:53;22.40;99.90
23053;DHT22;11694;-36.632;-64.318;2022-11-28T07:46:21;22.30;99.90
23053;DHT22;11694;-36.632;-64.318;2022-11-28T07:48:49;22.30;99.90
23053;DHT22;11694;-36.632;-64.318;2022-11-28T07:51:19;22.30;99.90
23053;DHT22;11694;-36.632;-64.318;2022-11-28T07:53:47;22.20;99.90
23053;DHT22;11694;-36.632;-64.318;2022-11-28T07:56:17;22.20;99.90
23053;DHT22;11694;-36.632;-64.318;2022-11-28T07:58:45;22.20;99.90
23053;DHT22;11694;-36.632;-64.318;2022-11-28T08:01:21;22.20;99.90
23053;DHT22;11694;-36.632;-64.318;2022-11-28T08:03:48;22.20;99.90
23053;DHT22;11694;-36.632;-64.318;2022-11-28T08:06:17;22.20;99.90
23053;DHT22;11694;-36.632;-64.318;2022-11-28T08:08:45;22.20;99.90
23053;DHT22;11694;-36.632;-64.318;2022-11-28T08:11:16;22.20;99.90
23053;DHT22;11694;-36.632;-64.318;2022-11-28T08:13:43;22.20;99.90
23053;DHT22;11694;-36.632;-64.318;2022-11-28T08:16:17;22.20;99.90
23053;DHT22;11694;-36.632;-64.318;2022-11-28T08:18:45;22.10;99.90
23053;DHT22;11694;-36.632;-64.318;2022-11-28T08:21:15;22.10;99.90
23053;DHT22;11694;-36.632;-64.318;2022-11-28T08:23:43;22.10;99.90
23053;DHT22;11694;-36.632;-64.318;2022-11-28T08:26:14;22.10;99.90
23053;DHT22;11694;-36.632;-64.318;2022-11-28T08:29:05;22.20;99.90
23053;DHT22;11694;-36.632;-64.318;2022-11-28T08:31:35;22.10;99.90
23053;DHT22;11694;-36.632;-64.318;2022-11-28T08:34:05;22.20;99.90
23053;DHT22;11694;-36.632;-64.318;2022-11-28T08:36:32;22.10;99.90
23053;DHT22;11694;-36.632;-64.318;2022-11-28T08:39:00;22.10;99.90
23053;DHT22;11694;-36.632;-64.318;2022-11-28T08:41:27;22.10;99.90
23053;DHT22;11694;-36.632;-64.318;2022-11-28T08:43:55;22.20;99.90
23053;DHT22;11694;-36.632;-64.318;2022-11-28T08:46:22;22.10;99.90
23053;DHT22;11694;-36.632;-64.318;2022-11-28T08:48:50;22.20;99.90
23053;DHT22;11694;-36.632;-64.318;2022-11-28T08:51:20;22.10;99.90
23053;DHT22;11694;-36.632;-64.318;2022-11-28T08:53:51;22.10;99.90
23053;DHT22;11694;-36.632;-64.318;2022-11-28T08:56:18;22.20;99.90
23053;DHT22;11694;-36.632;-64.318;2022-11-28T08:58:45;22.20;99.90
23053;DHT22;11694;-36.632;-64.318;2022-11-28T09:01:18;22.20;99.90
23053;DHT22;11694;-36.632;-64.318;2022-11-28T09:03:46;22.20;99.90
23053;DHT22;11694;-36.632;-64.318;2022-11-28T09:06:15;22.20;99.90
23053;DHT22;11694;-36.632;-64.318;2022-11-28T09:08:42;22.20;99.90
23053;DHT22;11694;-36.632;-64.318;2022-11-28T09:11:12;22.20;99.90
23053;DHT22;11694;-36.632;-64.318;2022-11-28T09:13:39;22.20;99.90
23053;DHT22;11694;-36.632;-64.318;2022-11-28T09:16:07;22.20;99.90
23053;DHT22;11694;-36.632;-64.318;2022-11-28T09:18:34;22.10;99.90
23053;DHT22;11694;-36.632;-64.318;2022-11-28T09:21:04;22.10;99.90
23053;DHT22;11694;-36.632;-64.318;2022-11-28T09:23:38;22.10;99.90
23053;DHT22;11694;-36.632;-64.318;2022-11-28T09:26:18;22.10;99.90
23053;DHT22;11694;-36.632;-64.318;2022-11-28T09:28:46;22.20;99.90
23053;DHT22;11694;-36.632;-64.318;2022-11-28T09:31:15;22.20;99.90
23053;DHT22;11694;-36.632;-64.318;2022-11-28T09:33:43;22.20;99.90
23053;DHT22;11694;-36.632;-64.318;2022-11-28T09:36:13;22.10;99.90
23053;DHT22;11694;-36.632;-64.318;2022-11-28T09:38:41;22.10;99.90
23053;DHT22;11694;-36.632;-64.318;2022-11-28T09:41:28;22.10;99.90
23053;DHT22;11694;-36.632;-64.318;2022-11-28T09:44:20;22.00;99.90
23053;DHT22;11694;-36.632;-64.318;2022-11-28T09:46:50;22.00;99.90
23053;DHT22;11694;-36.632;-64.318;2022-11-28T09:49:40;22.00;99.90
23053;DHT22;11694;-36.632;-64.318;2022-11-28T09:57:50;21.80;99.90
23053;DHT22;11694;-36.632;-64.318;2022-11-28T10:00:29;21.80;99.90
23053;DHT22;11694;-36.632;-64.318;2022-11-28T10:03:06;21.80;99.90
23053;DHT22;11694;-36.632;-64.318;2022-11-28T10:05:56;21.80;99.90
23053;DHT22;11694;-36.632;-64.318;2022-11-28T10:19:15;22.20;99.90
23053;DHT22;11694;-36.632;-64.318;2022-11-28T10:21:49;22.30;99.90
23053;DHT22;11694;-36.632;-64.318;2022-11-28T10:24:34;22.50;99.90
23053;DHT22;11694;-36.632;-64.318;2022-11-28T10:27:04;22.60;99.90
23053;DHT22;11694;-36.632;-64.318;2022-11-28T10:32:05;22.90;99.90
23053;DHT22;11694;-36.632;-64.318;2022-11-28T10:34:57;23.10;99.90
23053;DHT22;11694;-36.632;-64.318;2022-11-28T10:37:29;23.30;99.90
23053;DHT22;11694;-36.632;-64.318;2022-11-28T10:40:23;23.40;98.50
23053;DHT22;11694;-36.632;-64.318;2022-11-28T10:43:05;23.60;98.90
23053;DHT22;11694;-36.632;-64.318;2022-11-28T10:48:39;23.90;92.40
23053;DHT22;11694;-36.632;-64.318;2022-11-28T10:57:02;24.20;78.20
23053;DHT22;11694;-36.632;-64.318;2022-11-28T11:00:02;24.20;76.20
23053;DHT22;11694;-36.632;-64.318;2022-11-28T11:05:19;24.30;85.20
23053;DHT22;11694;-36.632;-64.318;2022-11-28T11:07:55;24.50;77.90
23053;DHT22;11694;-36.632;-64.318;2022-11-28T11:10:38;24.60;73.50
23053;DHT22;11694;-36.632;-64.318;2022-11-28T11:13:17;24.80;74.70
23053;DHT22;11694;-36.632;-64.318;2022-11-28T11:15:48;24.90;62.00
23053;DHT22;11694;-36.632;-64.318;2022-11-28T11:18:30;25.20;67.50
23053;DHT22;11694;-36.632;-64.318;2022-11-28T11:23:36;26.10;46.90
23053;DHT22;11694;-36.632;-64.318;2022-11-28T11:26:05;27.20;41.00
23053;DHT22;11694;-36.632;-64.318;2022-11-28T11:28:44;28.00;1.00
23053;DHT22;11694;-36.632;-64.318;2022-11-28T11:33:45;27.30;1.00
23053;DHT22;11694;-36.632;-64.318;2022-11-28T11:36:31;26.60;13.40
23053;DHT22;11694;-36.632;-64.318;2022-11-28T11:39:22;26.20;22.70
23053;DHT22;11694;-36.632;-64.318;2022-11-28T11:42:10;26.10;40.30
23053;DHT22;11694;-36.632;-64.318;2022-11-28T11:44:38;26.10;36.70
23053;DHT22;11694;-36.632;-64.318;2022-11-28T11:47:07;26.10;49.80
23053;DHT22;11694;-36.632;-64.318;2022-11-28T11:49:36;26.00;52.90
23053;DHT22;11694;-36.632;-64.318;2022-11-28T11:57:13;25.80;43.30
23053;DHT22;11694;-36.632;-64.318;2022-11-28T12:00:06;25.80;30.90
23053;DHT22;11694;-36.632;-64.318;2022-11-28T12:02:46;25.80;51.60
23053;DHT22;11694;-36.632;-64.318;2022-11-28T12:06:00;25.80;43.50
23053;DHT22;11694;-36.632;-64.318;2022-11-28T12:08:34;25.90;36.90
23053;DHT22;11694;-36.632;-64.318;2022-11-28T12:13:44;26.10;50.10
23053;DHT22;11694;-36.632;-64.318;2022-11-28T12:19:27;26.90;40.70
23053;DHT22;11694;-36.632;-64.318;2022-11-28T12:27:33;29.90;1.00
23053;DHT22;11694;-36.632;-64.318;2022-11-28T12:30:38;29.70;1.00
23053;DHT22;11694;-36.632;-64.318;2022-11-28T12:36:18;29.90;1.00
23053;DHT22;11694;-36.632;-64.318;2022-11-28T12:41:51;29.00;1.00
23053;DHT22;11694;-36.632;-64.318;2022-11-28T12:47:29;28.40;1.00
23053;DHT22;11694;-36.632;-64.318;2022-11-28T12:58:54;29.40;1.00
23053;DHT22;11694;-36.632;-64.318;2022-11-28T13:07:42;30.00;1.00
23053;DHT22;11694;-36.632;-64.318;2022-11-28T13:10:26;30.40;1.00
23053;DHT22;11694;-36.632;-64.318;2022-11-28T13:13:02;30.40;1.00
23053;DHT22;11694;-36.632;-64.318;2022-11-28T13:18:35;29.80;1.00
23053;DHT22;11694;-36.632;-64.318;2022-11-28T13:21:31;30.20;1.00
23053;DHT22;11694;-36.632;-64.318;2022-11-28T13:24:02;29.40;1.00
23053;DHT22;11694;-36.632;-64.318;2022-11-28T13:32:23;28.00;1.00
23053;DHT22;11694;-36.632;-64.318;2022-11-28T13:34:58;28.50;9.80
23053;DHT22;11694;-36.632;-64.318;2022-11-28T13:37:36;28.90;1.00
23053;DHT22;11694;-36.632;-64.318;2022-11-28T13:40:26;28.90;1.00
23053;DHT22;11694;-36.632;-64.318;2022-11-28T13:43:18;28.80;1.00
23053;DHT22;11694;-36.632;-64.318;2022-11-28T13:45:48;28.90;1.00
23053;DHT22;11694;-36.632;-64.318;2022-11-28T13:53:42;31.70;1.00
23053;DHT22;11694;-36.632;-64.318;2022-11-28T13:56:25;32.90;1.00
23053;DHT22;11694;-36.632;-64.318;2022-11-28T13:58:54;32.30;99.90
23053;DHT22;11694;-36.632;-64.318;2022-11-28T14:01:46;30.90;99.90
23053;DHT22;11694;-36.632;-64.318;2022-11-28T14:04:16;30.30;1.00
23053;DHT22;11694;-36.632;-64.318;2022-11-28T14:06:52;29.90;1.00
23053;DHT22;11694;-36.632;-64.318;2022-11-28T14:21:21;28.80;1.00
23053;DHT22;11694;-36.632;-64.318;2022-11-28T14:24:07;29.00;5.60
23053;DHT22;11694;-36.632;-64.318;2022-11-28T14:26:39;29.10;1.00
23053;DHT22;11694;-36.632;-64.318;2022-11-28T14:29:32;29.30;1.00
23053;DHT22;11694;-36.632;-64.318;2022-11-28T14:32:00;29.60;1.00
23053;DHT22;11694;-36.632;-64.318;2022-11-28T14:34:41;29.90;1.00
23053;DHT22;11694;-36.632;-64.318;2022-11-28T14:39:54;30.10;1.00
23053;DHT22;11694;-36.632;-64.318;2022-11-28T14:44:56;30.20;1.00
23053;DHT22;11694;-36.632;-64.318;2022-11-28T14:47:31;30.20;1.00
23053;DHT22;11694;-36.632;-64.318;2022-11-28T14:52:40;30.00;1.00
23053;DHT22;11694;-36.632;-64.318;2022-11-28T15:03:29;31.00;1.00
23053;DHT22;11694;-36.632;-64.318;2022-11-28T15:06:21;31.10;1.00
23053;DHT22;11694;-36.632;-64.318;2022-11-28T15:12:05;31.20;1.00
23053;DHT22;11694;-36.632;-64.318;2022-11-28T15:14:36;31.20;1.00
23053;DHT22;11694;-36.632;-64.318;2022-11-28T15:17:09;31.10;1.00
23053;DHT22;11694;-36.632;-64.318;2022-11-28T15:19:47;31.60;1.00
23053;DHT22;11694;-36.632;-64.318;2022-11-28T15:22:38;32.80;99.90
23053;DHT22;11694;-36.632;-64.318;2022-11-28T15:27:44;32.40;99.90
23053;DHT22;11694;-36.632;-64.318;2022-11-28T15:30:19;32.10;99.90
23053;DHT22;11694;-36.632;-64.318;2022-11-28T15:32:49;31.70;99.90
23053;DHT22;11694;-36.632;-64.318;2022-11-28T15:35:21;31.30;99.90
23053;DHT22;11694;-36.632;-64.318;2022-11-28T15:37:53;31.10;1.00
23053;DHT22;11694;-36.632;-64.318;2022-11-28T15:40:49;31.10;99.90
23053;DHT22;11694;-36.632;-64.318;2022-11-28T15:43:17;31.50;1.00
23053;DHT22;11694;-36.632;-64.318;2022-11-28T15:45:49;31.80;99.90
23053;DHT22;11694;-36.632;-64.318;2022-11-28T15:48:35;31.70;99.90
23053;DHT22;11694;-36.632;-64.318;2022-11-28T15:51:04;31.70;99.90
23053;DHT22;11694;-36.632;-64.318;2022-11-28T15:53:32;31.70;99.90
23053;DHT22;11694;-36.632;-64.318;2022-11-28T15:56:13;31.70;99.90
23053;DHT22;11694;-36.632;-64.318;2022-11-28T15:58:44;31.90;99.90
23053;DHT22;11694;-36.632;-64.318;2022-11-28T16:01:19;32.40;99.90
23053;DHT22;11694;-36.632;-64.318;2022-11-28T16:04:06;32.40;99.90
23053;DHT22;11694;-36.632;-64.318;2022-11-28T16:06:37;32.10;99.90
23053;DHT22;11694;-36.632;-64.318;2022-11-28T16:11:51;31.50;99.90
23053;DHT22;11694;-36.632;-64.318;2022-11-28T16:14:41;31.40;99.90
23053;DHT22;11694;-36.632;-64.318;2022-11-28T16:17:21;31.30;99.90
23053;DHT22;11694;-36.632;-64.318;2022-11-28T16:19:50;31.50;99.90
23053;DHT22;11694;-36.632;-64.318;2022-11-28T16:22:20;32.20;99.90
23053;DHT22;11694;-36.632;-64.318;2022-11-28T16:24:49;33.50;99.90
23053;DHT22;11694;-36.632;-64.318;2022-11-28T16:29:56;33.60;99.90
23053;DHT22;11694;-36.632;-64.318;2022-11-28T16:35:00;32.80;99.90
23053;DHT22;11694;-36.632;-64.318;2022-11-28T16:37:30;32.50;99.90
23053;DHT22;11694;-36.632;-64.318;2022-11-28T16:40:14;32.30;99.90
23053;DHT22;11694;-36.632;-64.318;2022-11-28T16:42:50;32.10;99.90
23053;DHT22;11694;-36.632;-64.318;2022-11-28T16:47:54;32.00;99.90
23053;DHT22;11694;-36.632;-64.318;2022-11-28T16:50:26;31.90;99.90
23053;DHT22;11694;-36.632;-64.318;2022-11-28T16:52:57;31.70;99.90
23053;DHT22;11694;-36.632;-64.318;2022-11-28T16:58:16;31.60;99.90
23053;DHT22;11694;-36.632;-64.318;2022-11-28T17:01:06;31.60;99.90
23053;DHT22;11694;-36.632;-64.318;2022-11-28T17:03:51;31.60;99.90
23053;DHT22;11694;-36.632;-64.318;2022-11-28T17:06:25;31.80;99.90
23053;DHT22;11694;-36.632;-64.318;2022-11-28T17:08:56;31.80;99.90
23053;DHT22;11694;-36.632;-64.318;2022-11-28T17:11:27;32.00;99.90
23053;DHT22;11694;-36.632;-64.318;2022-11-28T17:13:55;32.20;99.90
23053;DHT22;11694;-36.632;-64.318;2022-11-28T17:16:24;32.30;99.90
23053;DHT22;11694;-36.632;-64.318;2022-11-28T17:18:52;32.40;99.90
23053;DHT22;11694;-36.632;-64.318;2022-11-28T17:23:55;32.60;99.90
23053;DHT22;11694;-36.632;-64.318;2022-11-28T17:26:22;32.70;99.90
23053;DHT22;11694;-36.632;-64.318;2022-11-28T17:28:49;32.80;99.90
23053;DHT22;11694;-36.632;-64.318;2022-11-28T17:31:16;32.70;99.90
23053;DHT22;11694;-36.632;-64.318;2022-11-28T17:33:43;32.60;99.90
23053;DHT22;11694;-36.632;-64.318;2022-11-28T17:36:11;32.50;99.90
23053;DHT22;11694;-36.632;-64.318;2022-11-28T17:38:38;32.40;99.90
23053;DHT22;11694;-36.632;-64.318;2022-11-28T17:41:07;32.30;99.90
23053;DHT22;11694;-36.632;-64.318;2022-11-28T17:43:35;32.20;99.90
23053;DHT22;11694;-36.632;-64.318;2022-11-28T17:46:02;32.40;99.90
23053;DHT22;11694;-36.632;-64.318;2022-11-28T17:48:29;32.70;99.90
23053;DHT22;11694;-36.632;-64.318;2022-11-28T17:50:56;33.60;99.90
23053;DHT22;11694;-36.632;-64.318;2022-11-28T17:53:24;34.40;99.90
23053;DHT22;11694;-36.632;-64.318;2022-11-28T17:55:51;34.80;99.90
23053;DHT22;11694;-36.632;-64.318;2022-11-28T17:58:24;35.10;99.90
23053;DHT22;11694;-36.632;-64.318;2022-11-28T18:00:53;35.00;99.90
23053;DHT22;11694;-36.632;-64.318;2022-11-28T18:03:21;34.80;99.90
23053;DHT22;11694;-36.632;-64.318;2022-11-28T18:05:49;34.50;99.90
23053;DHT22;11694;-36.632;-64.318;2022-11-28T18:08:18;34.00;99.90
23053;DHT22;11694;-36.632;-64.318;2022-11-28T18:10:46;33.70;99.90
23053;DHT22;11694;-36.632;-64.318;2022-11-28T18:13:13;33.40;99.90
23053;DHT22;11694;-36.632;-64.318;2022-11-28T18:15:43;33.20;99.90
23053;DHT22;11694;-36.632;-64.318;2022-11-28T18:18:11;33.00;99.90
23053;DHT22;11694;-36.632;-64.318;2022-11-28T18:20:38;32.90;99.90
23053;DHT22;11694;-36.632;-64.318;2022-11-28T18:23:05;32.80;99.90
23053;DHT22;11694;-36.632;-64.318;2022-11-28T18:25:32;32.60;99.90
23053;DHT22;11694;-36.632;-64.318;2022-11-28T18:27:59;32.80;99.90
23053;DHT22;11694;-36.632;-64.318;2022-11-28T18:30:26;33.30;99.90
23053;DHT22;11694;-36.632;-64.318;2022-11-28T18:32:53;33.70;99.90
23053;DHT22;11694;-36.632;-64.318;2022-11-28T18:35:21;34.80;99.90
23053;DHT22;11694;-36.632;-64.318;2022-11-28T18:37:48;35.40;99.90
23053;DHT22;11694;-36.632;-64.318;2022-11-28T18:40:15;35.00;99.90
23053;DHT22;11694;-36.632;-64.318;2022-11-28T18:42:42;34.90;99.90
23053;DHT22;11694;-36.632;-64.318;2022-11-28T18:45:10;34.50;99.90
23053;DHT22;11694;-36.632;-64.318;2022-11-28T18:47:37;34.10;99.90
23053;DHT22;11694;-36.632;-64.318;2022-11-28T18:50:05;33.90;99.90
23053;DHT22;11694;-36.632;-64.318;2022-11-28T18:52:33;33.50;99.90